Parkman, WY (82838)

2:41 PM MDT on May 24, 2015 (GMT -0600)
MesoWest | | Change Station
CLOSE
Current Station
Personal Weather Station
Location: Parkman, WY
Elevation: 4101 ft
Nearby Weather Stations

Elev 4101 ft 45.03 °N, 107.32 °W | Updated 34 minutes ago

Rain
Rain
50 °F
Feels Like 48 °F
N
6
Wind Variable Wind from NNE
Gusts 11.0 mph

Today
High -- | Low -- °F
--% Chance of Precip.
Yesterday
High -- | Low -- °F
Precip. -- in
5:31 AM 8:41 PM
Waxing Crescent, 42% visible
Pressure 29.97 in
Visibility 4.0 miles
Clouds Mostly Cloudy 600 ft
Overcast 1200 ft
Windchill 48 °F
Dew Point 50 °F
Humidity 98%
Rainfall in
Snow Depth Not available.
UV 3 out of 12
Pollen 1.00 out of 12
Air Quality Not available.
Flu Activity Sporadic
METAR KSHR 241953Z AUTO 35012KT 4SM RA BR BKN006 OVC012 10/09 A2998 RMK AO2 CIG 004V009 SLP147 P0011 T01000089

More Conditions Fewer Conditions

Pressure 29.97 in
Visibility 4.0 miles
Clouds Mostly Cloudy 600 ft
Overcast 1200 ft
Windchill 48 °F
Dew Point 50 °F
Humidity 98%
Rainfall in
Snow Depth Not available.
UV 3 out of 12
Pollen 1.00 out of 12
Air Quality Not available.
Flu Activity Sporadic
METAR KSHR 241953Z AUTO 35012KT 4SM RA BR BKN006 OVC012 10/09 A2998 RMK AO2 CIG 004V009 SLP147 P0011 T01000089

More Conditions Fewer Conditions

10-Day Weather Forecast

Almanac

Astronomy

May. 24, 2015 Rise Set
Actual Time
Civil Twilight
Nautical Twilight
Astronomical Twilight
Moon
Length of Visible Light
Length of Day
Tomorrow will be .
, % of the Moon is Illuminated

Today's Extremes

State Highs State Lows

Community

WunderPhotos

Upload Photos

1,823,862 photos uploaded!

WunderBlogs® & News

Nearby

Air Quality

  Air Quality AQ Index Pollutant
Not available.

Snow Depth

Station Depth Elevation

Earthquake Activity

City Distance Mag. Time & Date
Minimum magnitude displayed is 2.5.

Coastal Water Temperatures

Place Temperature

Stations

Nearby Weather Stations

Station Location Temp. Windchill Dew Point Humidity Wind Precip. Elev Updated Type